Arviat Airport
CYEK : now visible

Airfield :











YOU CAN JOIN US ON...

 
LOGIN :

Register | Disclaimer

   EN    FR    IT 

 









Legend :    VFR   Marginal VFR   IFR   Intensive IFR   Very Intensive IFR
Visi :
Ceiling :
>= 8 km
>= 3000ft
5 to 8 km
1000 to 3000 ft
1500m to 5 km
500 to 1000 ft
800 to 1500m
200 to 500 ft
< 800m
< 200 ft
Symbols :   Thunderstorms  Fog  Heavy snow  Heavy precipitations  Wind > 20 kt






- Airport Elevation : 32 ft
- IATA code : YEK


CYEK - Arviat

CURRENT METAR :
  • 221000Z AUTO 31010G15KT 9SM OVC055 05/04 A2954 RMK SLP007

EXPIRED METARs :
  • 220900Z AUTO 30010KT 9SM OVC055 05/03 A2955 RMK SLP009
  • 220800Z AUTO 32011KT 9SM OVC060 05/04 A2956 RMK SLP014

TAF TAF CYEK
Valid from the 22 at 06:00 until the 22 at 18:00 UTC


220540Z 2206/2218 31012KT P6SM BKN040 OVC060
TEMPO 2206/2212 P6SM -RA FEW020 OVC030
FM221200 28010KT P6SM OVC030
TEMPO 2212/2216 SCT030
FM221600 24012KT P6SM BKN040 RMK FCST BASED ON AUTO OBS. NXT FCST BY 221200Z
CZEG FIR / North America



MET'MAP, your aeronautical weather chart ! - Copyright ORBIFLY December 2007 - Disclaimer

ORBIFLY MET'MAP TEAM :

Programming & Development : Alexandra Zaïnal
Concept & original design : Baudouin d'Aumeries
Assistance for programming : Marc-Olivier Méhu
Technical & hardware support : Manuel Goepfert

Contact : metmap@orbifly.com




SOURCES & CREDITS :

   NOAA       Earth
Advisory